4 de julio de 2022

Hora Código Tiempo Temp. Visibilidad Cielo nuboso Viento METAR/SPECI
10:00 p. m.
V
79 °F 6¼ mi+ - 230° 230° 10 kt METAR DGAA 042200Z 23010KT CAVOK 26/24 Q1014 NOSIG
9:00 p. m.
V
79 °F 6¼ mi+ - 230° 230° 9 kt METAR DGAA 042100Z 23009KT CAVOK 26/23 Q1015 NOSIG
8:00 p. m.
V
79 °F 6¼ mi+ - 230° 230° 10 kt METAR DGAA 042000Z 23010KT CAVOK 26/23 Q1015 NOSIG
6:00 p. m.
V
79 °F 6¼ mi+ - 220° 220° 14 kt METAR DGAA 041800Z 22014KT 9999 SCT010 26/23 Q1013 NOSIG
5:00 p. m.
V
81 °F 6¼ mi+ - 220° 220° 18 kt METAR DGAA 041700Z 22018KT 9999 SCT010 27/22 Q1012 NOSIG
4:00 p. m.
V
81 °F 6¼ mi+ - 220° 220° 18 kt METAR DGAA 041600Z 22018KT 9999 SCT010 27/23 Q1012 NOSIG
3:00 p. m.
V
81 °F 6¼ mi+ - 210° 210° 16 kt METAR DGAA 041500Z 21016KT 9999 SCT010 27/23 Q1013 NOSIG
2:00 p. m.
M
81 °F 6¼ mi+ 1.000 ft 210° 210° 18 kt METAR DGAA 041400Z 21018KT 9999 BKN010 27/22 Q1014 NOSIG
1:00 p. m.
M
81 °F 6¼ mi+ 1.000 ft 220° 220° 17 kt METAR DGAA 041300Z 22017KT 9999 BKN010 27/22 Q1014 NOSIG
12:00 p. m.
M
79 °F 5 mi 1.000 ft 220° 220° 15 kt METAR DGAA 041200Z 22015KT 8000 -RA BKN010 26/23 Q1015 NOSIG
11:00 a. m.
M
81 °F 6¼ mi+ 1.500 ft 210° 210° 15 kt METAR DGAA 041100Z 21015KT 9999 SCT010 BKN015 27/23 Q1015 NOSIG
10:00 a. m.
M
81 °F 6¼ mi+ 1.500 ft 230° 230° 11 kt METAR DGAA 041000Z 23011KT 9999 SCT010 BKN015 27/22 Q1015 NOSIG
9:00 a. m.
M
79 °F 6¼ mi+ 1.000 ft 240° 240° 11 kt METAR DGAA 040900Z 24011KT 9999 BKN010 SCT015 26/23 Q1015 NOSIG
8:00 a. m.
M
77 °F 6¼ mi+ 1.000 ft 250° 250° 10 kt METAR DGAA 040800Z 25010KT 9999 BKN010 SCT015 25/23 Q1015 NOSIG
7:00 a. m.
V
77 °F 6¼ mi+ - 250° 250° 8 kt METAR DGAA 040700Z 25008KT 9999 FEW010 25/23 Q1015 NOSIG
6:00 a. m.
M
75 °F 6¼ mi+ 1.000 ft 270° 270° 6 kt METAR DGAA 040600Z 27006KT 9999 BKN010 24/23 Q1015 NOSIG
5:00 a. m.
M
75 °F 6¼ mi+ 1.000 ft 260° 260° 6 kt METAR DGAA 040500Z 26006KT 9999 BKN010 24/23 Q1014 NOSIG
4:00 a. m.
M
77 °F 6¼ mi+ 1.000 ft 250° 250° 8 kt METAR DGAA 040400Z 25008KT 9999 BKN010 25/23 Q1014 NOSIG
3:00 a. m.
V
77 °F 6¼ mi+ - 240° 240° 8 kt METAR DGAA 040300Z 24008KT 9999 FEW010 25/23 Q1014 NOSIG
2:00 a. m.
V
77 °F 6¼ mi+ - 240° 240° 6 kt METAR DGAA 040200Z 24006KT 220V300 9999 FEW010 25/23 Q1015 NOSIG
1:00 a. m.
V
77 °F 6¼ mi+ - 240° 240° 8 kt METAR DGAA 040100Z 24008KT 9999 FEW010 25/23 Q1015 NOSIG
12:00 a. m.
V
77 °F 6¼ mi+ - 240° 240° 8 kt METAR DGAA 040000Z 24008KT 9999 SCT010 25/23 Q1015 NOSIG

3 de julio de 2022

Hora Código Tiempo Temp. Visibilidad Cielo nuboso Viento METAR/SPECI
11:00 p. m.
V
79 °F 6¼ mi+ - 240° 240° 10 kt METAR DGAA 032300Z 24010KT 9999 SCT010 26/23 Q1016 NOSIG
10:00 p. m.
V
79 °F 6¼ mi+ - 220° 220° 10 kt METAR DGAA 032200Z 22010KT 9999 SCT010 26/23 Q1016 NOSIG
9:00 p. m.
V
79 °F 6¼ mi+ - 220° 220° 11 kt METAR DGAA 032100Z 22011KT 9999 SCT012 26/23 Q1015 NOSIG
8:00 p. m.
V
79 °F 6¼ mi+ - 220° 220° 12 kt METAR DGAA 032000Z 22012KT 9999 FEW012 26/23 Q1015 NOSIG
7:00 p. m.
V
79 °F 6¼ mi+ - 210° 210° 14 kt METAR DGAA 031900Z 21014KT 9999 FEW012 26/23 Q1014 NOSIG
6:00 p. m.
V
81 °F 6¼ mi+ - 210° 210° 17 kt METAR DGAA 031800Z 21017KT 9999 FEW018 FEW030CB 27/22 Q1014 NOSIG
5:00 p. m.
V
81 °F 6¼ mi+ - 200° 200° 14 kt METAR DGAA 031700Z 20014KT 9999 SCT022 FEW030CB 27/22 Q1013 NOSIG
4:00 p. m.
V
82 °F 6¼ mi+ - 200° 200° 16 kt METAR DGAA 031600Z 20016KT 9999 SCT022 FEW030CB 28/22 Q1013 NOSIG
3:00 p. m.
M
82 °F 6¼ mi+ 1.800 ft 200° 200° 16 kt METAR DGAA 031500Z 20016KT 9999 BKN018 28/22 Q1014 NOSIG
2:00 p. m.
V
82 °F 6¼ mi+ - 200° 200° 16 kt METAR DGAA 031400Z 20016KT CAVOK 28/23 Q1015 NOSIG
1:00 p. m.
M
82 °F 6¼ mi+ 2.200 ft 200° 200° 15 kt METAR DGAA 031300Z 20015KT 9999 BKN022 28/22 Q1015 NOSIG
12:00 p. m.
V
82 °F 6¼ mi+ - 190° 190° 12 kt METAR DGAA 031200Z 19012KT 9999 SCT018 28/23 Q1016 NOSIG
10:00 a. m.
V
81 °F 6¼ mi+ - 230° 230° 9 kt METAR DGAA 031000Z 23009KT 9999 SCT015 FEW030CB 27/23 Q1017 NOSIG
9:00 a. m.
V
81 °F 5 mi - 220° 220° 8 kt METAR DGAA 030900Z 22008KT 190V250 8000 FEW012 FEW030CB 27/23 Q1017 NOSIG
8:00 a. m.
V
77 °F 5 mi - 280° 280° 7 kt METAR DGAA 030800Z 28007KT 8000 FEW010 25/23 Q1016 NOSIG
7:00 a. m.
V
75 °F 5 mi - 260° 260° 4 kt METAR DGAA 030700Z 26004KT 8000 FEW010 24/23 Q1016 NOSIG
6:00 a. m.
V
75 °F 5 mi - 240° 240° 4 kt METAR DGAA 030600Z 24004KT 8000 FEW010 24/23 Q1015 NOSIG
5:00 a. m.
V
75 °F 6¼ mi+ - 260° 260° 5 kt METAR DGAA 030500Z 26005KT CAVOK 24/23 Q1015 NOSIG
4:00 a. m.
V
75 °F 6¼ mi+ - 270° 270° 5 kt METAR DGAA 030400Z 27005KT CAVOK 24/23 Q1015 NOSIG
3:00 a. m.
V
75 °F 6¼ mi+ - 280° 280° 4 kt METAR DGAA 030300Z 28004KT CAVOK 24/23 Q1015 NOSIG
2:00 a. m.
V
75 °F 6¼ mi+ - 270° 270° 3 kt METAR DGAA 030200Z 27003KT CAVOK 24/23 Q1015 NOSIG
1:00 a. m.
V
77 °F 6¼ mi+ - 260° 260° 4 kt METAR DGAA 030100Z 26004KT 9999 25/23 Q1015 NOSIG

2 de julio de 2022

Hora Código Tiempo Temp. Visibilidad Cielo nuboso Viento METAR/SPECI
11:00 p. m.
V
77 °F 6¼ mi+ - 190° 190° 5 kt METAR DGAA 022300Z 19005KT 9999 25/23 Q1016 NOSIG
10:00 p. m.
V
79 °F 6¼ mi+ - 220° 220° 5 kt METAR DGAA 022200Z 22005KT 9999 FEW010 26/23 Q1015 NOSIG
9:00 p. m.
V
79 °F 6¼ mi+ - 220° 220° 7 kt METAR DGAA 022100Z 22007KT 9999 FEW010 26/22 Q1015 NOSIG
8:00 p. m.
V
79 °F 6¼ mi+ - 210° 210° 9 kt METAR DGAA 022000Z 21009KT 9999 FEW010 26/23 Q1015 NOSIG
7:00 p. m.
V
79 °F 6¼ mi+ - 210° 210° 9 kt METAR DGAA 021900Z 21009KT 9999 FEW010 26/22 Q1014 NOSIG
6:00 p. m.
V
79 °F 6¼ mi+ - 190° 190° 9 kt METAR DGAA 021800Z 19009KT 9999 FEW010 26/23 Q1013 NOSIG
5:00 p. m.
V
81 °F 6¼ mi+ - 190° 190° 11 kt METAR DGAA 021700Z 19011KT 9999 FEW010 SCT016 27/22 Q1013 NOSIG
4:00 p. m.
V
81 °F 6¼ mi+ - 190° 190° 11 kt METAR DGAA 021600Z 19011KT 9999 FEW010 SCT016 27/23 Q1014 NOSIG
3:00 p. m.
V
81 °F 6¼ mi+ - 190° 190° 12 kt METAR DGAA 021500Z 19012KT 9999 FEW010 SCT016 27/22 Q1014 NOSIG
Datos más antiguos

Descarga nuestra aplicación

Acceso fácil a todo el tiempo de la aviación en tu teléfono móvil y tableta.
Con muchas funciones no disponibles en el sitio web, como la compatibilidad sin conexión y una lista personal de aeropuertos.

Nosotros y terceros seguimos tu comportamiento en Internet en nuestro sitio web con cookies. Si continúas, asumimos que estás de acuerdo con nuestra política de cookies. Más información